Sun Valley, CA

08:00 PM PST am 27. November 2014 (GMT -0800)
Burbank-Glendale-Pasadena | Change Station
CLOSE
Current Station
Flughafen
Location: Burbank,
Höhe: 774 ft
Wetterstationen in der Umgebung

Höhe 774 ft 34.20 °N, 118.36 °W | Updated 7 minutes ago

Heiter
Heiter
67 °F
gefühlte 67 °F
N
0
Wind Wechselnd Wind aus Nord

Heute
Max. -- | schwach -- °F
--% Regenrisiko
Gestern
Max. -- | schwach -- °F
Precip. -- inch
6:37 AM 4:44 PM
Erstes Viertel, 36% visible
Druck 30.00 inch
Sichtweite 10.0 Meilen
Wolken Heiter
Taupunkt 25 °F
Feuchtigkeit 21%
Regen 0.00 inch
Schneehöhe Nicht verfügbar..
UV 0 von 12
Pollen 2.80 von 12
Luftqualität Nicht verfügbar..
Flu Activity Nicht verfügbar..
METAR KBUR 280353Z 00000KT 10SM CLR 19/M04 A3003 RMK AO2 SLP158 T01941039

More Conditions Fewer Conditions

Druck 30.00 inch
Sichtweite 10.0 Meilen
Wolken Heiter
Taupunkt 25 °F
Feuchtigkeit 21%
Regen 0.00 inch
Schneehöhe Nicht verfügbar..
UV 0 von 12
Pollen 2.80 von 12
Luftqualität Nicht verfügbar..
Flu Activity Nicht verfügbar..
METAR KBUR 280353Z 00000KT 10SM CLR 19/M04 A3003 RMK AO2 SLP158 T01941039

More Conditions Fewer Conditions

10-Day Weather Forecast

Almanac

Astronomie

Nov. 27, 2014 Aufgang Untergang
Genaue Zeit
Bürgerliche Dämmerung
Nautische Dämmerung
Astronomische Dämmerung
Mond
Länge des sichtbaren Lichts
Tageslänge
Tomorrow will be .
, % of the Moon is Illuminated

Heutige Rekorde

State Highs State Lows

Community

WunderPhotos

Upload Photos

1,774,176 Fotos hochgeladen!

WunderBlogs® & News

Nearby

Luftqualität

  Luftqualität LQ Index Schadstoff
Not available.

Schneehöhe

Station Depth Höhe

Erdbebenaktivität

Stadt Distance Mag. Time & Date
Minimum magnitude displayed is 2.5.

küstennahe Wassertemperaturen

Ort Temperatur

Wetterstationen in der Umgebung